Terminal Aerodrome Forecast
Issued by NWS Central Illinois

Home | Current Version | Previous Version | Text Only | Print | Product List | Glossary On
Versions: 1 2 3 4 5 6 7 8 9 10 11 12 13 14 15 16 17 18 19 20 21 22 23
648
FTUS43 KILX 012347
TAFPIA
TAF
KPIA 012347Z 0200/0224 36006KT 2SM -DZ BR OVC008
     FM020200 01006KT 3SM BR OVC007
     FM020600 02007KT 2SM BR OVC003
     FM021500 05007KT 5SM BR OVC010
     FM021900 04007KT P6SM OVC020=

USA.gov is the U.S. government's official web portal to all federal, state and local government web resources and services.